Time;durP1;ratioP1;P1;durP2;ratioP2;P2;SDS_P1;SDS_P2;PMS_P1;PMS_P2;Temp;Humidity;BMP_temperature;BMP_pressure;BME280_temperature;BME280_humidity;BME280_pressure;Samples;Min_cycle;Max_cycle;Signal;HPM_P1;HPM_P2
2023/10/31 00:00:26;;;;;;;11.98;10.45;;;;;;;11.34;92.03;99605.59;5079208;28;20055;-69
2023/10/31 00:02:51;;;;;;;12.38;10.13;;;;;;;11.37;92.19;99602.72;5082118;28;20060;-68
2023/10/31 00:05:17;;;;;;;17.23;10.90;;;;;;;11.36;92.09;99601.88;5082535;28;20063;-69
2023/10/31 00:07:42;;;;;;;16.13;10.38;;;;;;;11.37;91.83;99595.63;5080193;28;20025;-69
2023/10/31 00:10:08;;;;;;;15.02;10.18;;;;;;;11.40;91.90;99599.91;5082705;28;20051;-69
2023/10/31 00:12:34;;;;;;;12.48;9.95;;;;;;;11.37;91.83;99600.09;5083118;28;20525;-68
2023/10/31 00:14:59;;;;;;;10.77;9.32;;;;;;;11.38;91.59;99607.09;5080432;28;20146;-69
2023/10/31 00:17:25;;;;;;;16.25;10.27;;;;;;;11.37;91.67;99610.66;5084300;28;20074;-69
2023/10/31 00:19:50;;;;;;;9.77;8.48;;;;;;;11.33;91.90;99619.75;5083129;28;20491;-68
2023/10/31 00:22:15;;;;;;;8.30;7.50;;;;;;;11.32;91.47;99615.41;5079266;28;20028;-69
2023/10/31 00:24:41;;;;;;;10.20;7.03;;;;;;;11.31;91.24;99622.50;5073991;28;20043;-68
2023/10/31 00:27:06;;;;;;;8.73;6.38;;;;;;;11.31;90.62;99619.00;5080407;28;20040;-68
2023/10/31 00:29:31;;;;;;;8.70;6.53;;;;;;;11.30;90.52;99626.09;5082389;28;20069;-68
2023/10/31 00:31:57;;;;;;;7.82;6.05;;;;;;;11.30;91.20;99619.97;5080585;28;20101;-68
2023/10/31 00:34:22;;;;;;;8.05;5.30;;;;;;;11.29;90.54;99626.19;5073257;28;20036;-69
2023/10/31 00:36:47;;;;;;;7.32;5.03;;;;;;;11.29;90.78;99626.19;5079002;28;20017;-69
2023/10/31 00:39:13;;;;;;;6.70;5.10;;;;;;;11.30;91.01;99630.53;5079619;28;20034;-69
2023/10/31 00:41:44;;;;;;;8.68;4.78;;;;;;;11.28;90.58;99629.78;5081935;28;20024;-68
2023/10/31 00:44:09;;;;;;;6.05;4.25;;;;;;;11.28;90.77;99629.78;5075636;28;20028;-67
2023/10/31 00:46:34;;;;;;;6.50;3.78;;;;;;;11.27;90.63;99631.56;5078790;28;20085;-68
2023/10/31 00:48:59;;;;;;;3.83;3.13;;;;;;;11.28;90.84;99638.56;5081964;28;20042;-68
2023/10/31 00:51:25;;;;;;;6.80;3.40;;;;;;;11.30;90.90;99635.84;5081392;28;20028;-68
2023/10/31 00:53:50;;;;;;;5.72;2.92;;;;;;;11.30;90.41;99643.78;5071276;28;20031;-68
2023/10/31 00:56:15;;;;;;;5.35;3.10;;;;;;;11.28;90.43;99653.59;5079139;28;20104;-68
2023/10/31 00:58:41;;;;;;;5.10;2.92;;;;;;;11.27;90.78;99654.53;5085562;28;20024;-68
2023/10/31 01:01:06;;;;;;;9.88;3.40;;;;;;;11.28;90.64;99643.00;5086599;28;20039;-68
2023/10/31 01:03:31;;;;;;;5.50;3.10;;;;;;;11.31;90.40;99648.97;5085318;28;20107;-69
2023/10/31 01:05:57;;;;;;;4.43;3.03;;;;;;;11.31;90.80;99653.41;5085517;28;20044;-68
2023/10/31 01:08:22;;;;;;;5.35;2.88;;;;;;;11.31;90.91;99658.69;5085920;28;20478;-69
2023/10/31 01:10:47;;;;;;;7.82;2.80;;;;;;;11.32;90.68;99666.53;5084996;28;20228;-68
2023/10/31 01:13:13;;;;;;;6.95;3.63;;;;;;;11.28;90.82;99670.31;5082132;28;20474;-68
2023/10/31 01:15:38;;;;;;;5.25;3.45;;;;;;;11.24;90.98;99669.66;5080912;28;20024;-68
2023/10/31 01:18:03;;;;;;;4.32;2.80;;;;;;;11.23;91.08;99673.22;5077082;28;20063;-68
2023/10/31 01:20:29;;;;;;;5.25;3.03;;;;;;;11.18;91.80;99669.19;5085444;28;20040;-68
2023/10/31 01:22:54;;;;;;;5.45;3.58;;;;;;;11.15;92.26;99666.75;5085125;28;20467;-68
2023/10/31 01:25:19;;;;;;;8.05;4.53;;;;;;;11.13;91.51;99668.59;5081787;28;20028;-68
2023/10/31 01:27:44;;;;;;;11.93;5.53;;;;;;;11.10;92.25;99667.03;5081865;28;20032;-68
2023/10/31 01:30:10;;;;;;;11.77;5.93;;;;;;;11.10;92.33;99674.09;5083335;28;20427;-68
2023/10/31 01:32:36;;;;;;;14.95;7.30;;;;;;;11.15;92.36;99677.31;5085325;28;20035;-68
2023/10/31 01:35:01;;;;;;;12.70;8.77;;;;;;;11.12;92.09;99675.69;5085746;28;20099;-68
2023/10/31 01:37:27;;;;;;;16.05;8.80;;;;;;;11.17;91.87;99681.56;5083274;28;20499;-68
2023/10/31 01:39:52;;;;;;;18.70;10.43;;;;;;;11.17;92.46;99680.72;5081717;28;20036;-68
2023/10/31 01:42:18;;;;;;;19.65;10.57;;;;;;;11.17;92.44;99673.63;5083475;28;20060;-69
2023/10/31 01:44:44;;;;;;;19.05;11.40;;;;;;;11.14;92.29;99683.53;5083213;28;20024;-68
2023/10/31 01:47:09;;;;;;;22.58;13.40;;;;;;;11.01;92.66;99675.50;5081892;28;20035;-68
2023/10/31 01:49:36;;;;;;;24.85;13.55;;;;;;;11.09;92.25;99677.66;5084437;28;20082;-67
2023/10/31 01:52:02;;;;;;;25.17;13.23;;;;;;;11.09;92.42;99675.88;5083615;28;20035;-68
2023/10/31 01:54:28;;;;;;;20.85;13.48;;;;;;;11.10;92.28;99671.47;5082208;28;20475;-69
2023/10/31 01:56:57;;;;;;;23.17;14.45;;;;;;;11.11;91.99;99670.50;5084694;28;20024;-69
2023/10/31 01:59:27;;;;;;;26.08;15.73;;;;;;;11.05;92.54;99678.78;5084492;28;20031;-69
2023/10/31 02:01:52;;;;;;;31.08;16.50;;;;;;;10.91;93.43;99677.88;5081507;28;20111;-69
2023/10/31 02:04:17;;;;;;;25.95;15.77;;;;;;;10.89;93.60;99671.78;5081057;28;20523;-69
2023/10/31 02:06:43;;;;;;;27.02;16.40;;;;;;;10.86;93.66;99679.91;5082334;28;20024;-69
2023/10/31 02:09:08;;;;;;;28.80;16.98;;;;;;;10.82;93.97;99681.06;5084444;28;20471;-69
2023/10/31 02:11:34;;;;;;;29.23;16.67;;;;;;;10.85;93.99;99686.16;5084944;28;20391;-69
2023/10/31 02:14:00;;;;;;;31.20;17.67;;;;;;;10.84;94.05;99687.09;5082071;28;20059;-69
2023/10/31 02:16:26;;;;;;;31.10;18.58;;;;;;;10.87;94.35;99694.00;5081124;28;20020;-69
2023/10/31 02:18:51;;;;;;;35.85;19.17;;;;;;;10.89;93.90;99687.66;5081792;28;20077;-69
2023/10/31 02:21:19;;;;;;;27.05;16.60;;;;;;;10.87;94.52;99681.63;5081560;28;20463;-68
2023/10/31 02:23:59;;;;;;;30.67;18.25;;;;;;;10.93;94.15;99678.59;5081297;28;20063;-68
2023/10/31 02:26:31;;;;;;;35.25;18.85;;;;;;;10.95;94.27;99684.66;5073782;28;20031;-68
2023/10/31 02:28:56;;;;;;;;;;;;;;;11.06;93.68;99678.72;5081625;28;20090;-69
2023/10/31 02:31:22;;;;;;;32.70;17.90;;;;;;;11.02;94.27;99679.84;5084288;28;19912;-69
2023/10/31 02:33:47;;;;;;;35.33;19.38;;;;;;;11.12;93.83;99674.84;5084499;28;20031;-69
2023/10/31 02:36:12;;;;;;;35.22;19.80;;;;;;;11.04;94.41;99685.88;5081227;28;20035;-69
2023/10/31 02:38:38;;;;;;;33.22;20.15;;;;;;;11.18;93.71;99685.03;5080742;28;20525;-69
2023/10/31 02:41:03;;;;;;;30.17;17.85;;;;;;;11.22;93.07;99690.06;5080752;28;20032;-69
2023/10/31 02:43:28;;;;;;;39.72;20.65;;;;;;;11.24;93.06;99685.53;5082509;28;20036;-69
2023/10/31 02:45:54;;;;;;;34.72;19.17;;;;;;;11.24;93.40;99698.78;5080934;28;20030;-69
2023/10/31 02:48:20;;;;;;;36.70;19.63;;;;;;;11.21;93.18;99692.81;5080849;28;20032;-69
2023/10/31 02:50:45;;;;;;;35.03;21.02;;;;;;;11.25;93.30;99694.31;5083609;28;20024;-69
2023/10/31 02:53:11;;;;;;;37.20;20.83;;;;;;;11.28;92.57;99709.16;5077126;28;20063;-69
2023/10/31 02:55:36;;;;;;;35.30;20.38;;;;;;;11.27;93.09;99702.16;5078058;28;20430;-69
2023/10/31 02:58:01;;;;;;;35.83;21.63;;;;;;;11.26;93.21;99701.31;5083842;28;20030;-69
2023/10/31 03:00:27;;;;;;;34.70;20.48;;;;;;;11.27;93.00;99710.94;5084480;28;20091;-68
2023/10/31 03:02:52;;;;;;;35.65;21.70;;;;;;;11.28;93.17;99709.16;5081297;28;20035;-69
2023/10/31 03:05:17;;;;;;;39.30;21.33;;;;;;;11.29;92.93;99718.81;5075271;28;20033;-68
2023/10/31 03:07:43;;;;;;;33.97;20.52;;;;;;;11.32;92.76;99713.31;5081909;28;20105;-68
2023/10/31 03:10:09;;;;;;;35.92;20.45;;;;;;;11.32;92.71;99719.44;5084406;28;20478;-67
2023/10/31 03:12:34;;;;;;;37.75;20.52;;;;;;;11.31;93.09;99712.47;5084120;28;20035;-67
2023/10/31 03:14:59;;;;;;;33.38;20.58;;;;;;;11.33;92.43;99725.59;5075336;28;20029;-68
2023/10/31 03:17:25;;;;;;;37.45;21.67;;;;;;;11.33;92.34;99729.09;5085930;28;20052;-68
2023/10/31 03:19:50;;;;;;;41.92;23.50;;;;;;;11.32;92.56;99732.69;5082927;28;20456;-68
2023/10/31 03:22:16;;;;;;;39.40;22.23;;;;;;;11.34;92.38;99732.59;5081078;28;20107;-68
2023/10/31 03:24:41;;;;;;;38.90;22.00;;;;;;;11.34;92.61;99738.75;5079290;28;20020;-68
2023/10/31 03:27:06;;;;;;;39.97;23.00;;;;;;;11.34;92.95;99736.09;5080596;28;20460;-68
2023/10/31 03:29:32;;;;;;;39.70;22.80;;;;;;;11.35;92.62;99751.03;5080574;28;20108;-68
2023/10/31 03:31:57;;;;;;;40.45;22.75;;;;;;;11.33;92.72;99747.63;5080760;28;20028;-68
2023/10/31 03:34:22;;;;;;;38.80;21.92;;;;;;;11.32;93.30;99755.66;5080684;28;20013;-69
2023/10/31 03:36:48;;;;;;;42.67;23.55;;;;;;;11.29;93.48;99746.13;5077806;28;20392;-68
2023/10/31 03:39:13;;;;;;;39.15;20.80;;;;;;;11.32;92.91;99758.28;5082771;28;20110;-68
2023/10/31 03:41:38;;;;;;;43.47;23.90;;;;;;;11.28;93.34;99754.97;5080493;28;20412;-69
2023/10/31 03:44:04;;;;;;;43.88;24.35;;;;;;;11.17;93.45;99754.78;5080823;28;20434;-68
2023/10/31 03:46:29;;;;;;;45.13;24.95;;;;;;;11.22;94.00;99756.19;5079216;28;20525;-68
2023/10/31 03:48:54;;;;;;;40.55;23.05;;;;;;;11.24;93.11;99762.25;5083523;28;20024;-68
2023/10/31 03:51:20;;;;;;;42.15;24.10;;;;;;;11.26;93.31;99762.16;5078226;28;20368;-68
2023/10/31 03:53:45;;;;;;;49.47;27.17;;;;;;;11.27;93.50;99763.84;5081389;28;20058;-68
2023/10/31 03:56:10;;;;;;;43.72;25.58;;;;;;;11.29;93.30;99775.22;5080454;28;20031;-68
2023/10/31 03:58:35;;;;;;;50.35;27.13;;;;;;;11.27;93.16;99773.59;5080891;28;20356;-68
2023/10/31 04:01:01;;;;;;;44.75;25.83;;;;;;;11.27;93.20;99782.38;5080879;28;20450;-68
2023/10/31 04:03:27;;;;;;;44.15;25.58;;;;;;;11.24;93.65;99770.19;5082361;28;20032;-68
2023/10/31 04:05:53;;;;;;;44.03;25.45;;;;;;;11.26;93.44;99782.47;5082009;28;20040;-68
2023/10/31 04:08:18;;;;;;;45.17;24.98;;;;;;;11.27;93.31;99782.38;5083230;28;20368;-68
2023/10/31 04:10:43;;;;;;;48.47;26.50;;;;;;;11.26;93.09;99787.78;5080446;28;20407;-68
2023/10/31 04:13:09;;;;;;;44.63;25.65;;;;;;;11.28;93.62;99797.31;5079825;28;20028;-68
2023/10/31 04:15:34;;;;;;;48.22;27.88;;;;;;;11.28;93.28;99801.75;5077985;28;20044;-69
2023/10/31 04:18:00;;;;;;;43.63;25.40;;;;;;;11.28;93.11;99791.16;5085563;28;20028;-69
2023/10/31 04:20:25;;;;;;;39.83;21.88;;;;;;;11.27;93.32;99794.75;5080029;28;20070;-69
2023/10/31 04:22:50;;;;;;;48.47;26.65;;;;;;;11.27;93.51;99797.41;5082063;28;20059;-69
2023/10/31 04:25:16;;;;;;;47.95;25.90;;;;;;;11.30;93.47;99807.81;5087629;28;20020;-69
2023/10/31 04:27:41;;;;;;;41.70;22.52;;;;;;;11.13;94.08;99807.00;5082497;28;20533;-69
2023/10/31 04:30:07;;;;;;;45.72;26.10;;;;;;;11.11;94.31;99810.72;5079452;28;20016;-69
2023/10/31 04:32:32;;;;;;;46.13;25.50;;;;;;;11.08;94.37;99817.00;5079402;28;20024;-69
2023/10/31 04:34:57;;;;;;;44.83;24.23;;;;;;;11.10;93.95;99816.94;5080406;28;20032;-68
2023/10/31 04:37:23;;;;;;;44.90;23.95;;;;;;;11.09;94.66;99821.34;5082453;28;20548;-68
2023/10/31 04:39:48;;;;;;;40.70;22.33;;;;;;;11.10;94.43;99816.94;5082600;28;20383;-68
2023/10/31 04:42:13;;;;;;;35.30;21.73;;;;;;;11.07;93.89;99812.66;5080031;28;20490;-68
2023/10/31 04:44:39;;;;;;;38.65;22.20;;;;;;;11.25;93.54;99823.97;5080000;28;20066;-68
2023/10/31 04:47:04;;;;;;;35.20;21.77;;;;;;;11.30;92.95;99831.63;5081383;28;20482;-68
2023/10/31 04:49:29;;;;;;;37.63;22.80;;;;;;;11.32;92.44;99830.59;5078672;28;20468;-68
2023/10/31 04:51:55;;;;;;;35.00;19.70;;;;;;;11.32;92.61;99830.59;5078817;28;20398;-68
2023/10/31 04:54:20;;;;;;;34.10;19.70;;;;;;;11.26;92.99;99835.41;5077503;28;20036;-68
2023/10/31 04:56:47;;;;;;;30.80;19.05;;;;;;;11.21;92.88;99846.25;5074671;28;20050;-68
2023/10/31 04:59:12;;;;;;;35.20;20.05;;;;;;;11.18;92.96;99843.78;5081499;28;20024;-68
2023/10/31 05:01:37;;;;;;;30.88;19.33;;;;;;;11.18;93.02;99847.28;5078527;28;20107;-68
2023/10/31 05:04:03;;;;;;;34.33;20.05;;;;;;;11.18;93.00;99849.91;5078981;28;20035;-68
2023/10/31 05:06:28;;;;;;;32.28;18.75;;;;;;;11.18;93.03;99849.06;5080237;28;20106;-69
2023/10/31 05:08:53;;;;;;;27.88;17.58;;;;;;;11.15;93.39;99850.13;5079356;28;20040;-68
2023/10/31 05:11:19;;;;;;;31.55;17.58;;;;;;;11.15;93.30;99859.84;5079180;28;20491;-68
2023/10/31 05:13:47;;;;;;;24.80;15.98;;;;;;;11.13;93.16;99854.63;5081168;28;20495;-68
2023/10/31 05:16:12;;;;;;;26.00;15.32;;;;;;;11.10;93.24;99852.19;5075042;28;20115;-68
2023/10/31 05:18:38;;;;;;;26.35;15.50;;;;;;;11.08;93.43;99854.03;5080577;28;20103;-68
2023/10/31 05:21:04;;;;;;;26.77;15.55;;;;;;;11.08;93.68;99855.84;5078779;28;20024;-68
2023/10/31 05:23:29;;;;;;;24.13;15.10;;;;;;;11.08;93.56;99847.91;5078342;28;20162;-68
2023/10/31 05:25:55;;;;;;;23.42;15.27;;;;;;;11.06;93.45;99845.34;5071708;28;20020;-68
2023/10/31 05:28:21;;;;;;;24.67;16.73;;;;;;;11.05;93.66;99843.66;5081704;28;20024;-67
2023/10/31 05:30:46;;;;;;;27.20;17.48;;;;;;;11.07;93.48;99847.06;5080928;28;20454;-68
2023/10/31 05:33:11;;;;;;;29.63;18.48;;;;;;;11.03;93.93;99840.25;5078460;28;20067;-68
2023/10/31 05:35:37;;;;;;;31.38;20.17;;;;;;;11.02;94.28;99848.28;5075478;28;20028;-68
2023/10/31 05:38:02;;;;;;;28.83;19.08;;;;;;;11.02;94.02;99843.81;5079762;28;20472;-67
2023/10/31 05:40:29;;;;;;;32.30;19.45;;;;;;;10.98;94.71;99853.72;5081320;28;20056;-68
2023/10/31 05:42:54;;;;;;;27.83;18.80;;;;;;;10.84;95.02;99863.41;5082632;28;20035;-68
2023/10/31 05:45:20;;;;;;;27.65;17.75;;;;;;;10.85;95.22;99873.03;5073599;28;20097;-68
2023/10/31 05:47:45;;;;;;;28.23;18.23;;;;;;;10.83;95.14;99882.84;5086150;28;20471;-69
2023/10/31 05:50:11;;;;;;;27.75;18.33;;;;;;;10.85;95.16;99888.88;5084380;28;20032;-69
2023/10/31 05:52:36;;;;;;;29.80;19.13;;;;;;;10.85;94.74;99887.09;5085070;28;20489;-69
2023/10/31 05:55:02;;;;;;;31.15;19.98;;;;;;;10.82;95.11;99889.94;5080897;28;20055;-69
2023/10/31 05:57:27;;;;;;;28.05;18.63;;;;;;;10.83;94.90;99894.28;5080116;28;20058;-69
2023/10/31 05:59:52;;;;;;;28.77;19.00;;;;;;;10.86;94.91;99901.16;5082032;28;20082;-69
2023/10/31 06:02:17;;;;;;;25.92;15.95;;;;;;;10.88;94.74;99901.94;5082278;28;20028;-69
2023/10/31 06:04:43;;;;;;;27.50;18.52;;;;;;;10.86;95.28;99901.16;5083365;28;20044;-69
2023/10/31 06:07:10;;;;;;;27.90;18.27;;;;;;;10.85;95.15;99913.53;5079661;28;20040;-69
2023/10/31 06:09:35;;;;;;;25.52;17.55;;;;;;;10.84;94.98;99909.19;5082351;28;20096;-68
2023/10/31 06:12:01;;;;;;;25.73;17.10;;;;;;;10.82;94.68;99915.50;5081387;28;20103;-69
2023/10/31 06:14:26;;;;;;;27.05;18.00;;;;;;;10.80;94.93;99931.44;5080699;28;20395;-69
2023/10/31 06:16:52;;;;;;;25.70;17.17;;;;;;;10.79;94.89;99927.09;5075263;28;20434;-69
2023/10/31 06:19:17;;;;;;;24.20;16.10;;;;;;;10.77;94.90;99936.03;5079996;28;20476;-69
2023/10/31 06:21:43;;;;;;;29.77;17.95;;;;;;;10.81;94.83;99941.09;5082357;28;20031;-69
2023/10/31 06:24:08;;;;;;;25.80;15.90;;;;;;;10.85;93.65;99939.97;5079610;28;20024;-68
2023/10/31 06:26:33;;;;;;;23.60;15.18;;;;;;;10.87;94.09;99947.84;5080493;28;20104;-69
2023/10/31 06:28:59;;;;;;;22.58;15.10;;;;;;;10.84;93.79;99940.06;5081465;28;20510;-68
2023/10/31 06:31:24;;;;;;;20.10;14.00;;;;;;;10.80;93.77;99952.59;5081252;28;20052;-69
2023/10/31 06:33:49;;;;;;;20.67;13.50;;;;;;;10.78;93.38;99951.00;5082016;28;20035;-69
2023/10/31 06:36:15;;;;;;;21.15;14.23;;;;;;;10.78;93.32;99965.06;5082420;28;20020;-69
2023/10/31 06:38:40;;;;;;;23.90;14.98;;;;;;;10.80;93.59;99960.53;5084142;28;20116;-68
2023/10/31 06:41:05;;;;;;;22.63;14.32;;;;;;;10.83;93.58;99963.03;5081720;28;20106;-69
2023/10/31 06:43:31;;;;;;;23.35;14.90;;;;;;;10.85;93.36;99963.78;5081361;28;20021;-69
2023/10/31 06:45:56;;;;;;;22.58;15.25;;;;;;;10.89;92.93;99967.09;5085801;28;20032;-68
2023/10/31 06:48:22;;;;;;;21.55;15.45;;;;;;;10.92;93.00;99967.81;5073065;28;20024;-69
2023/10/31 06:50:47;;;;;;;23.15;15.68;;;;;;;10.94;92.41;99962.41;5081618;28;20127;-69
2023/10/31 06:53:12;;;;;;;22.75;15.60;;;;;;;10.96;92.71;99965.84;5088087;28;20027;-69
2023/10/31 06:55:38;;;;;;;23.17;15.13;;;;;;;11.00;92.45;99972.63;5081665;28;20463;-68
2023/10/31 06:58:03;;;;;;;27.45;16.88;;;;;;;10.99;92.67;99966.50;5082832;28;20077;-68
2023/10/31 07:00:29;;;;;;;26.27;16.90;;;;;;;11.01;92.80;99968.22;5081283;28;20089;-68
2023/10/31 07:02:54;;;;;;;24.58;15.82;;;;;;;11.06;92.78;99982.91;5080951;28;20035;-68
2023/10/31 07:05:20;;;;;;;23.60;15.55;;;;;;;11.07;92.56;99981.09;5080731;28;20048;-68
2023/10/31 07:07:46;;;;;;;26.38;15.95;;;;;;;11.06;92.54;99982.91;5083680;28;20016;-69
2023/10/31 07:10:11;;;;;;;24.58;16.50;;;;;;;11.04;92.22;99984.75;5083472;28;20063;-69
2023/10/31 07:12:37;;;;;;;23.48;15.52;;;;;;;11.06;92.56;99990.00;5081457;28;20527;-69
2023/10/31 07:15:03;;;;;;;25.70;16.83;;;;;;;11.05;92.47;99991.78;5079705;28;20028;-69
2023/10/31 07:17:28;;;;;;;25.15;16.77;;;;;;;11.05;92.06;99983.84;5086205;28;20024;-69
2023/10/31 07:19:53;;;;;;;25.08;15.73;;;;;;;11.07;92.39;99989.03;5080266;28;20366;-69
2023/10/31 07:22:19;;;;;;;24.25;16.88;;;;;;;11.07;92.41;99986.41;5079796;28;20021;-69
2023/10/31 07:24:44;;;;;;;24.92;16.35;;;;;;;11.08;91.95;99986.31;5079705;28;20032;-69
2023/10/31 07:27:09;;;;;;;24.92;16.23;;;;;;;11.12;91.79;99992.28;5075292;28;20039;-69
2023/10/31 07:29:35;;;;;;;23.55;15.73;;;;;;;11.11;92.38;99991.44;5083204;28;20388;-69
2023/10/31 07:32:00;;;;;;;21.13;15.02;;;;;;;11.12;91.85;99989.63;5081196;28;20055;-68
2023/10/31 07:34:26;;;;;;;21.38;14.68;;;;;;;11.16;91.88;99991.19;5080778;28;20134;-69
2023/10/31 07:36:52;;;;;;;20.00;14.25;;;;;;;11.22;91.21;99991.66;5081871;28;20028;-68
2023/10/31 07:39:17;;;;;;;20.83;14.27;;;;;;;11.28;91.15;100001.03;5080314;28;20028;-68
2023/10/31 07:41:42;;;;;;;19.65;13.48;;;;;;;11.29;90.64;99988.69;5079864;28;20025;-68
2023/10/31 07:44:08;;;;;;;21.40;15.40;;;;;;;11.29;91.14;99999.28;5082113;28;20078;-68
2023/10/31 07:46:33;;;;;;;18.65;13.52;;;;;;;11.34;90.73;99997.22;5074591;28;20029;-68
2023/10/31 07:48:58;;;;;;;16.65;12.18;;;;;;;11.36;90.77;100001.47;5079670;28;20028;-68
2023/10/31 07:51:24;;;;;;;15.52;12.70;;;;;;;11.27;90.91;99995.84;5082629;28;20027;-68
2023/10/31 07:53:49;;;;;;;17.35;12.32;;;;;;;11.24;91.65;100000.38;5082659;28;20124;-68
2023/10/31 07:56:16;;;;;;;17.23;13.38;;;;;;;11.44;90.91;100004.53;5087125;28;20118;-68
2023/10/31 07:58:41;;;;;;;18.55;13.50;;;;;;;11.73;90.54;100010.81;5079066;28;20029;-68
2023/10/31 08:01:10;;;;;;;18.23;12.75;;;;;;;11.73;89.85;100010.81;5079279;28;20036;-68
2023/10/31 08:03:36;;;;;;;17.67;13.25;;;;;;;11.67;90.27;100010.31;5082094;28;20039;-68
2023/10/31 08:06:01;;;;;;;16.50;12.88;;;;;;;11.68;90.19;100018.16;5075183;28;20045;-68
2023/10/31 08:08:26;;;;;;;17.83;12.32;;;;;;;11.68;90.39;100010.22;5080040;28;20027;-68
2023/10/31 08:10:51;;;;;;;16.33;13.93;;;;;;;11.70;90.38;100020.72;5083185;28;20036;-68
2023/10/31 08:13:17;;;;;;;18.52;13.32;;;;;;;12.02;89.45;100020.66;5083074;28;20422;-68
2023/10/31 08:15:42;;;;;;;18.42;13.43;;;;;;;12.38;88.20;100023.75;5077796;28;20036;-68
2023/10/31 08:18:07;;;;;;;21.58;15.02;;;;;;;12.44;87.41;100018.06;5079193;28;20121;-68
2023/10/31 08:20:33;;;;;;;18.15;14.85;;;;;;;12.33;87.31;100019.69;5082554;28;20055;-69
2023/10/31 08:22:59;;;;;;;24.40;16.00;;;;;;;12.18;88.85;100022.31;5079113;28;20031;-68
2023/10/31 08:25:24;;;;;;;23.50;17.20;;;;;;;12.06;88.74;100032.78;5075691;28;20473;-68
2023/10/31 08:27:49;;;;;;;22.50;16.42;;;;;;;12.00;89.02;100021.59;5080772;28;20488;-68
2023/10/31 08:30:15;;;;;;;23.77;17.13;;;;;;;11.90;89.61;100030.19;5082568;28;20073;-68
2023/10/31 08:32:40;;;;;;;24.25;16.92;;;;;;;11.96;88.75;100027.19;5081884;28;20028;-68
2023/10/31 08:35:05;;;;;;;22.02;15.45;;;;;;;11.96;88.81;100032.47;5078919;28;20039;-68
2023/10/31 08:37:31;;;;;;;26.23;17.33;;;;;;;11.94;88.42;100032.56;5076037;28;20391;-68
2023/10/31 08:39:56;;;;;;;26.27;19.05;;;;;;;11.86;88.03;100044.56;5080727;28;20081;-68
2023/10/31 08:42:21;;;;;;;28.60;18.42;;;;;;;11.88;88.10;100032.91;5078376;28;20108;-68
2023/10/31 08:44:47;;;;;;;25.67;16.92;;;;;;;11.97;87.95;100039.47;5080370;28;20056;-68
2023/10/31 08:47:12;;;;;;;25.33;17.30;;;;;;;11.95;88.32;100051.97;5079345;28;20016;-68
2023/10/31 08:49:37;;;;;;;26.88;17.00;;;;;;;11.99;88.12;100058.81;5079080;28;20024;-68
2023/10/31 08:52:04;;;;;;;22.23;14.75;;;;;;;12.28;87.17;100067.66;5079183;28;20021;-68
2023/10/31 08:54:29;;;;;;;30.15;16.30;;;;;;;12.44;86.49;100059.63;5078708;28;20093;-68
2023/10/31 08:56:54;;;;;;;24.58;15.60;;;;;;;12.51;86.71;100068.94;5079134;28;20028;-68
2023/10/31 08:59:20;;;;;;;24.95;15.40;;;;;;;12.46;85.79;100068.38;5080654;28;20089;-68
2023/10/31 09:01:45;;;;;;;24.73;15.18;;;;;;;12.37;85.72;100068.91;5078867;28;20491;-68
2023/10/31 09:04:10;;;;;;;25.48;14.93;;;;;;;12.30;85.16;100081.66;5078646;28;20040;-68
2023/10/31 09:06:36;;;;;;;25.23;14.88;;;;;;;12.57;85.14;100081.81;5081284;28;20036;-68
2023/10/31 09:09:02;;;;;;;21.30;13.95;;;;;;;12.64;85.16;100088.47;5081974;28;20467;-68
2023/10/31 09:11:29;;;;;;;30.45;16.65;;;;;;;12.55;85.17;100089.03;5080846;28;20032;-68
2023/10/31 09:13:54;;;;;;;21.90;13.75;;;;;;;12.50;85.41;100085.81;5078772;28;20036;-68
2023/10/31 09:16:19;;;;;;;25.75;14.48;;;;;;;12.63;85.20;100097.34;5078290;28;20516;-68
2023/10/31 09:18:45;;;;;;;21.30;13.57;;;;;;;12.63;85.03;100097.34;5082883;28;20032;-68
2023/10/31 09:21:10;;;;;;;21.80;13.90;;;;;;;12.60;85.17;100102.00;5082576;28;20595;-68
2023/10/31 09:23:35;;;;;;;21.85;12.68;;;;;;;12.91;84.87;100106.28;5083001;28;20546;-68
2023/10/31 09:26:01;;;;;;;18.35;12.93;;;;;;;12.86;83.94;100108.38;5072932;28;20038;-69
2023/10/31 09:28:26;;;;;;;20.35;14.15;;;;;;;13.28;83.58;100121.66;5082666;28;20153;-68
2023/10/31 09:30:52;;;;;;;21.13;13.88;;;;;;;14.60;77.64;100122.84;5084156;28;20051;-68
2023/10/31 09:33:17;;;;;;;17.92;11.60;;;;;;;14.41;77.22;100121.41;5085793;28;20031;-68
2023/10/31 09:35:43;;;;;;;17.05;12.30;;;;;;;14.33;77.02;100125.53;5083410;28;20482;-68
2023/10/31 09:38:08;;;;;;;18.15;12.15;;;;;;;13.69;79.48;100126.13;5085610;28;20024;-69
2023/10/31 09:40:35;;;;;;;19.30;12.15;;;;;;;13.64;79.55;100135.34;5086036;28;20047;-69
2023/10/31 09:43:01;;;;;;;19.50;12.73;;;;;;;14.09;78.81;100139.50;5084588;28;20402;-69
2023/10/31 09:45:26;;;;;;;17.52;11.98;;;;;;;15.22;74.86;100152.22;5083294;28;20034;-69
2023/10/31 09:47:52;;;;;;;19.75;12.25;;;;;;;14.88;74.85;100143.06;5082218;28;20035;-69
2023/10/31 09:50:18;;;;;;;17.55;10.50;;;;;;;14.38;75.63;100139.34;5084419;28;20446;-69
2023/10/31 09:52:44;;;;;;;19.77;11.65;;;;;;;13.90;77.26;100139.00;5079641;28;20055;-69
2023/10/31 09:55:10;;;;;;;17.75;11.82;;;;;;;13.54;78.54;100153.69;5082539;28;20032;-69
2023/10/31 09:57:35;;;;;;;18.77;11.68;;;;;;;13.26;79.64;100152.75;5084188;28;20028;-69
2023/10/31 10:00:01;;;;;;;18.77;12.95;;;;;;;13.37;79.65;100156.53;5081617;28;20101;-69
2023/10/31 10:02:26;;;;;;;18.92;12.05;;;;;;;14.10;78.08;100159.78;5083674;28;20545;-69
2023/10/31 10:04:51;;;;;;;16.83;12.25;;;;;;;14.30;76.19;100169.97;5084675;28;20063;-69
2023/10/31 10:07:20;;;;;;;17.27;12.05;;;;;;;15.46;74.18;100170.94;5084060;28;20016;-69
2023/10/31 10:09:46;;;;;;;17.02;11.98;;;;;;;16.09;70.43;100183.28;5081261;28;20131;-69
2023/10/31 10:12:13;;;;;;;15.63;11.50;;;;;;;16.02;69.79;100176.66;5081160;28;20107;-69
2023/10/31 10:14:39;;;;;;;16.40;10.88;;;;;;;15.58;69.69;100180.72;5083224;28;20033;-69
2023/10/31 10:17:24;;;;;;;14.43;10.93;;;;;;;15.84;72.05;100183.34;5081594;28;20091;-69
2023/10/31 10:20:10;;;;;;;16.20;10.65;;;;;;;15.86;70.87;100192.09;5084887;28;20126;-69
2023/10/31 10:22:40;;;;;;;15.82;10.75;;;;;;;15.29;70.66;100188.97;5084561;28;20032;-69
2023/10/31 10:25:27;;;;;;;16.90;11.10;;;;;;;14.74;73.55;100190.09;5077884;28;20036;-69
2023/10/31 10:27:52;;;;;;;14.23;10.93;;;;;;;14.41;74.33;100194.97;5082093;28;20379;-70
2023/10/31 10:30:18;;;;;;;15.13;9.98;;;;;;;14.14;74.50;100195.88;5081229;28;20020;-69
2023/10/31 10:32:43;;;;;;;16.55;10.88;;;;;;;14.02;75.73;100201.97;5081954;28;20056;-69
2023/10/31 10:35:09;;;;;;;17.38;11.45;;;;;;;13.78;74.91;100205.25;5084332;28;20051;-69
2023/10/31 10:37:39;;;;;;;16.83;10.98;;;;;;;13.66;76.34;100206.03;5083122;28;20129;-69
2023/10/31 10:40:07;;;;;;;16.02;10.98;;;;;;;13.67;77.33;100213.06;5082237;28;20487;-69
2023/10/31 10:42:37;;;;;;;17.23;11.23;;;;;;;13.70;77.51;100204.88;5080757;28;20028;-69
2023/10/31 10:45:05;;;;;;;16.13;10.43;;;;;;;13.83;76.90;100212.06;5083450;28;20024;-69
2023/10/31 10:47:35;;;;;;;16.38;11.40;;;;;;;13.88;76.56;100215.28;5076109;28;20503;-69
2023/10/31 10:50:02;;;;;;;15.02;9.88;;;;;;;14.84;73.75;100210.78;5082927;28;20032;-68
2023/10/31 10:52:35;;;;;;;12.18;9.32;;;;;;;15.52;72.57;100223.75;5082921;28;20055;-68
2023/10/31 10:55:12;;;;;;;12.63;9.65;;;;;;;15.57;71.51;100217.19;5083680;28;20066;-68
2023/10/31 10:57:47;;;;;;;13.80;9.05;;;;;;;16.11;69.89;100223.16;5075210;28;20095;-68
2023/10/31 11:00:14;;;;;;;11.65;9.20;;;;;;;15.50;70.18;100225.69;5080750;28;20020;-68
2023/10/31 11:02:42;;;;;;;14.45;10.50;;;;;;;14.94;70.76;100220.69;5084280;28;20036;-69
2023/10/31 11:05:08;;;;;;;11.82;8.80;;;;;;;14.63;72.83;100229.88;5084066;28;20121;-68
2023/10/31 11:07:38;;;;;;;13.02;9.10;;;;;;;14.30;74.68;100227.59;5074880;28;20487;-68
2023/10/31 11:10:04;;;;;;;14.07;8.75;;;;;;;14.40;72.71;100228.69;5083678;28;20119;-69